Time;durP1;ratioP1;P1;durP2;ratioP2;P2;SDS_P1;SDS_P2;PMS_P1;PMS_P2;Temp;Humidity;BMP_temperature;BMP_pressure;BME280_temperature;BME280_humidity;BME280_pressure;Samples;Min_cycle;Max_cycle;Signal;HPM_P1;HPM_P2
2023/12/25 00:01:06;;;;;;;3.30;1.70;;;;;;;-1.23;100.00;99310.34;104667;1254;65662;-57
2023/12/25 00:03:33;;;;;;;4.60;2.60;;;;;;;-1.25;100.00;99307.71;104837;1254;71214;-57
2023/12/25 00:06:14;;;;;;;3.70;1.40;;;;;;;-1.28;100.00;99309.70;104726;1258;60465;-57
2023/12/25 00:08:41;;;;;;;5.30;1.60;;;;;;;-1.29;100.00;99311.28;105191;1253;60569;-56
2023/12/25 00:11:10;;;;;;;2.90;1.20;;;;;;;-1.30;100.00;99303.02;104618;1254;72909;-56
2023/12/25 00:13:37;;;;;;;4.80;1.40;;;;;;;-1.29;100.00;99304.59;108553;1254;65645;-56
2023/12/25 00:16:05;;;;;;;3.30;1.80;;;;;;;-1.27;100.00;99302.44;104746;1255;71448;-55
2023/12/25 00:18:32;;;;;;;3.50;1.40;;;;;;;-1.23;100.00;99296.79;104465;1253;60543;-57
2023/12/25 00:21:00;;;;;;;4.90;1.70;;;;;;;-1.21;100.00;99285.69;104879;1259;59391;-56
2023/12/25 00:23:27;;;;;;;5.90;2.00;;;;;;;-1.20;100.00;99281.10;104795;1253;74466;-58
2023/12/25 00:25:55;;;;;;;5.60;1.30;;;;;;;-1.19;100.00;99264.88;106037;1253;68429;-57
2023/12/25 00:28:22;;;;;;;2.60;1.00;;;;;;;-1.19;100.00;99257.48;104787;1254;73179;-58
2023/12/25 00:30:49;;;;;;;3.40;1.10;;;;;;;-1.20;100.00;99250.30;104760;1253;61089;-58
2023/12/25 00:33:17;;;;;;;6.40;1.40;;;;;;;-1.22;100.00;99232.35;104731;1254;60474;-58
2023/12/25 00:35:45;;;;;;;5.80;1.10;;;;;;;-1.23;100.00;99221.61;104911;1254;73996;-58
2023/12/25 00:38:12;;;;;;;2.60;1.30;;;;;;;-1.24;100.00;99232.54;107521;1253;66653;-56
2023/12/25 00:40:39;;;;;;;2.80;1.00;;;;;;;-1.23;100.00;99237.46;104800;1260;72665;-57
2023/12/25 00:43:09;;;;;;;3.80;1.20;;;;;;;-1.23;100.00;99241.33;105114;1254;60445;-58
2023/12/25 00:45:36;;;;;;;4.70;1.60;;;;;;;-1.21;100.00;99239.38;104732;1253;60990;-57
2023/12/25 00:48:04;;;;;;;5.90;2.10;;;;;;;-1.20;100.00;99231.46;104744;1253;73968;-55
2023/12/25 00:50:31;;;;;;;4.70;2.50;;;;;;;-1.20;100.00;99222.13;104989;1257;67255;-57
2023/12/25 00:52:59;;;;;;;7.40;2.60;;;;;;;-1.20;100.00;99214.20;104669;1254;72193;-57
2023/12/25 00:55:26;;;;;;;5.90;2.30;;;;;;;-1.22;100.00;99209.10;105240;1254;60531;-56
2023/12/25 00:57:54;;;;;;;3.60;1.40;;;;;;;-1.23;100.00;99198.90;104810;1253;60562;-58
2023/12/25 01:00:22;;;;;;;3.80;1.70;;;;;;;-1.23;100.00;99192.74;104862;1258;72626;-57
2023/12/25 01:02:49;;;;;;;4.20;1.40;;;;;;;-1.23;100.00;99183.77;104643;1260;69057;-57
2023/12/25 01:05:17;;;;;;;3.50;1.80;;;;;;;-1.22;100.00;99180.23;104714;1259;71692;-57
2023/12/25 01:07:45;;;;;;;8.20;3.00;;;;;;;-1.21;100.00;99168.27;104988;1253;60435;-58
2023/12/25 01:10:13;;;;;;;2.90;1.10;;;;;;;-1.18;100.00;99148.85;106182;1258;60690;-57
2023/12/25 01:12:41;;;;;;;4.50;1.50;;;;;;;-1.16;100.00;99143.55;104542;1254;74461;-56
2023/12/25 01:15:09;;;;;;;2.70;1.50;;;;;;;-1.16;100.00;99148.29;104843;1254;65632;-57
2023/12/25 01:17:36;;;;;;;6.50;1.80;;;;;;;-1.15;100.00;99149.17;104836;1260;74662;-56
2023/12/25 01:20:05;;;;;;;2.40;1.20;;;;;;;-1.13;100.00;99139.30;104791;1253;60314;-56
2023/12/25 01:22:32;;;;;;;2.10;0.90;;;;;;;-1.10;100.00;99139.08;104636;1253;60541;-56
2023/12/25 01:25:00;;;;;;;4.60;1.30;;;;;;;-1.08;100.00;99134.12;104741;1259;72631;-56
2023/12/25 01:27:27;;;;;;;2.60;1.10;;;;;;;-1.07;100.00;99126.54;104759;1255;65766;-56
2023/12/25 01:29:54;;;;;;;6.40;1.30;;;;;;;-1.03;100.00;99130.73;104686;1253;71925;-57
2023/12/25 01:32:22;;;;;;;3.10;1.60;;;;;;;-1.00;100.00;99133.85;104669;1260;60355;-56
2023/12/25 01:34:49;;;;;;;4.20;1.90;;;;;;;-0.99;100.00;99127.32;104887;1260;60524;-57
2023/12/25 01:37:17;;;;;;;4.20;1.70;;;;;;;-0.98;100.00;99121.67;104786;1257;73887;-57
2023/12/25 01:39:48;;;;;;;3.20;1.40;;;;;;;-0.96;100.00;99116.38;108996;1253;65747;-57
2023/12/25 01:42:15;;;;;;;4.00;2.10;;;;;;;-0.94;100.00;99111.94;108875;1253;73147;-57
2023/12/25 01:44:42;;;;;;;4.30;1.90;;;;;;;-0.90;100.00;99109.77;105329;1254;60900;-57
2023/12/25 01:47:10;;;;;;;3.50;1.70;;;;;;;-0.86;100.00;99108.50;104636;1258;60754;-56
2023/12/25 01:49:37;;;;;;;3.00;2.60;;;;;;;-0.82;100.00;99108.27;104441;1260;72694;-56
2023/12/25 01:52:05;;;;;;;3.00;1.70;;;;;;;-0.79;100.00;99106.12;104523;1254;66004;-55
2023/12/25 01:54:33;;;;;;;3.00;2.30;;;;;;;-0.77;100.00;99091.83;108709;1253;74022;-56
2023/12/25 01:57:00;;;;;;;5.10;1.60;;;;;;;-0.76;100.00;99089.15;108896;1255;59342;-56
2023/12/25 01:59:29;;;;;;;4.60;1.80;;;;;;;-0.73;100.00;99095.29;108768;1254;115164;-57
2023/12/25 02:04:04;;;;;;;4.20;1.30;;;;;;;-0.70;100.00;99152.69;101710;1292;599712;-55
2023/12/25 02:06:32;;;;;;;3.50;1.40;;;;;;;-0.68;100.00;99169.59;104005;1273;59328;-57
2023/12/25 02:09:00;;;;;;;5.50;1.90;;;;;;;-0.66;100.00;99150.34;103492;1273;60201;-57
2023/12/25 02:11:27;;;;;;;2.20;1.70;;;;;;;-0.65;100.00;99136.76;103965;1261;71981;-58
2023/12/25 02:13:56;;;;;;;3.90;1.40;;;;;;;-0.63;100.00;99128.98;104350;1260;65429;-57
2023/12/25 02:16:24;;;;;;;3.40;1.90;;;;;;;-0.63;100.00;99121.05;104139;1268;70918;-58
2023/12/25 02:18:52;;;;;;;4.10;2.10;;;;;;;-0.62;100.00;99114.00;104217;1266;148557;-58
2023/12/25 02:21:20;;;;;;;1.90;1.00;;;;;;;-0.61;100.00;99110.82;108570;1259;58809;-56
2023/12/25 02:23:47;;;;;;;3.80;1.10;;;;;;;-0.60;100.00;99093.90;104856;1258;72220;-55
2023/12/25 02:26:15;;;;;;;2.40;1.10;;;;;;;-0.58;100.00;99075.70;104428;1263;67179;-54
2023/12/25 02:28:42;;;;;;;4.50;1.40;;;;;;;-0.56;100.00;99068.26;104706;1265;71448;-56
2023/12/25 02:31:10;;;;;;;2.00;1.40;;;;;;;-0.54;100.00;99066.66;104434;1263;60455;-56
2023/12/25 02:33:38;;;;;;;2.80;1.40;;;;;;;-0.52;100.00;99066.81;104936;1264;59615;-54
2023/12/25 02:36:05;;;;;;;3.20;1.00;;;;;;;-0.51;100.00;99059.36;104467;1263;73140;-55
2023/12/25 02:38:33;;;;;;;3.70;1.50;;;;;;;-0.50;100.00;99045.08;104575;1263;66911;-56
2023/12/25 02:41:00;;;;;;;1.40;1.20;;;;;;;-0.48;100.00;99040.11;104268;1260;72745;-57
2023/12/25 02:43:28;;;;;;;2.40;1.10;;;;;;;-0.46;100.00;99035.86;104464;1263;60379;-55
2023/12/25 02:45:56;;;;;;;2.40;1.50;;;;;;;-0.42;100.00;99033.33;105004;1263;59737;-54
2023/12/25 02:48:23;;;;;;;2.50;1.60;;;;;;;-0.39;100.00;99025.52;104323;1260;70869;-55
2023/12/25 02:50:50;;;;;;;2.30;1.70;;;;;;;-0.37;100.00;99013.70;106211;1263;66018;-54
2023/12/25 02:53:18;;;;;;;3.00;1.10;;;;;;;-0.38;100.00;99005.77;104592;1264;71459;-52
2023/12/25 02:55:46;;;;;;;3.50;2.80;;;;;;;-0.37;100.00;99003.13;104610;1266;60959;-55
2023/12/25 02:58:14;;;;;;;2.60;1.00;;;;;;;-0.37;100.00;99001.54;104850;1260;60111;-55
2023/12/25 03:00:41;;;;;;;2.10;1.30;;;;;;;-0.36;100.00;99000.45;104595;1257;73046;-56
2023/12/25 03:03:09;;;;;;;1.50;1.10;;;;;;;-0.34;100.00;98997.44;104439;1263;67379;-55
2023/12/25 03:05:36;;;;;;;1.70;1.10;;;;;;;-0.34;100.00;98993.17;104481;1263;72666;-55
2023/12/25 03:08:04;;;;;;;3.30;1.60;;;;;;;-0.33;100.00;98993.33;106729;1261;59718;-55
2023/12/25 03:10:31;;;;;;;1.50;1.40;;;;;;;-0.33;100.00;98992.64;104415;1264;59638;-56
2023/12/25 03:12:58;;;;;;;3.70;1.70;;;;;;;-0.34;100.00;98996.73;104362;1264;74019;-55
2023/12/25 03:15:26;;;;;;;1.50;1.00;;;;;;;-0.33;100.00;98985.94;104373;1257;65808;-55
2023/12/25 03:17:53;;;;;;;2.00;1.00;;;;;;;-0.31;100.00;98976.21;104420;1263;71649;-55
2023/12/25 03:20:22;;;;;;;1.60;0.90;;;;;;;-0.31;100.00;98971.09;104424;1263;59666;-55
2023/12/25 03:22:49;;;;;;;3.80;1.00;;;;;;;-0.30;100.00;98964.55;104982;1260;58710;-55
2023/12/25 03:25:17;;;;;;;1.30;0.90;;;;;;;-0.29;100.00;98957.31;104739;1259;71857;-56
2023/12/25 03:27:44;;;;;;;2.60;1.10;;;;;;;-0.28;100.00;98942.31;104744;1263;66538;-55
2023/12/25 03:30:12;;;;;;;3.20;1.10;;;;;;;-0.28;100.00;98936.50;104619;1263;71452;-55
2023/12/25 03:32:39;;;;;;;1.80;1.00;;;;;;;-0.28;100.00;98929.44;104555;1260;60884;-54
2023/12/25 03:35:07;;;;;;;1.00;0.80;;;;;;;-0.28;100.00;98917.45;104933;1258;59567;-55
2023/12/25 03:37:34;;;;;;;1.60;0.80;;;;;;;-0.28;100.00;98908.46;104296;1257;72161;-55
2023/12/25 03:40:02;;;;;;;1.00;0.90;;;;;;;-0.27;100.00;98902.29;104383;1266;67037;-56
2023/12/25 03:42:30;;;;;;;2.00;0.90;;;;;;;-0.27;100.00;98894.70;104662;1260;73484;-54
2023/12/25 03:44:57;;;;;;;1.60;0.90;;;;;;;-0.26;100.00;98877.76;104227;1259;59728;-56
2023/12/25 03:47:24;;;;;;;3.00;0.80;;;;;;;-0.25;100.00;98872.27;105435;1258;59715;-55
2023/12/25 03:49:52;;;;;;;1.10;0.90;;;;;;;-0.25;100.00;98861.31;105027;1264;71153;-55
2023/12/25 03:52:19;;;;;;;2.80;1.00;;;;;;;-0.24;100.00;98844.55;104285;1264;65673;-56
2023/12/25 03:54:46;;;;;;;1.70;1.00;;;;;;;-0.23;100.00;98834.48;104318;1258;72766;-53
2023/12/25 03:57:14;;;;;;;1.10;0.90;;;;;;;-0.23;100.00;98833.42;104517;1263;59898;-55
2023/12/25 03:59:41;;;;;;;1.70;1.10;;;;;;;-0.23;100.00;98817.02;104245;1263;59727;-55
2023/12/25 04:02:08;;;;;;;2.10;1.20;;;;;;;-0.23;100.00;98812.98;104159;1264;71828;-56
2023/12/25 04:04:39;;;;;;;2.60;1.00;;;;;;;-0.24;100.00;98809.83;104247;1263;65532;-56
2023/12/25 04:07:07;;;;;;;2.20;1.40;;;;;;;-0.25;100.00;98800.51;104454;1263;71611;-57
2023/12/25 04:09:34;;;;;;;2.90;1.50;;;;;;;-0.25;100.00;98802.45;104178;1257;62036;-56
2023/12/25 04:12:02;;;;;;;2.60;1.50;;;;;;;-0.26;100.00;98797.89;104295;1260;59654;-54
2023/12/25 04:14:29;;;;;;;3.40;2.20;;;;;;;-0.27;100.00;98785.39;104447;1263;74009;-57
2023/12/25 04:16:57;;;;;;;2.50;2.30;;;;;;;-0.26;100.00;98787.31;107283;1263;65769;-56
2023/12/25 04:19:24;;;;;;;3.50;1.80;;;;;;;-0.25;100.00;98783.73;104253;1264;73077;-55
2023/12/25 04:21:52;;;;;;;3.60;2.50;;;;;;;-0.23;100.00;98776.66;104292;1263;59764;-54
2023/12/25 04:24:19;;;;;;;3.20;2.20;;;;;;;-0.22;100.00;98776.09;104511;1263;59830;-56
2023/12/25 04:26:46;;;;;;;3.20;2.40;;;;;;;-0.20;100.00;98772.55;104376;1263;74565;-54
2023/12/25 04:29:14;;;;;;;4.60;3.00;;;;;;;-0.19;100.00;98766.36;104173;1257;65786;-54
2023/12/25 04:31:42;;;;;;;4.60;2.20;;;;;;;-0.19;100.00;98764.94;104411;1260;71421;-55
2023/12/25 04:34:09;;;;;;;4.40;2.60;;;;;;;-0.17;100.00;98762.27;104290;1257;61780;-56
2023/12/25 04:36:37;;;;;;;5.00;3.50;;;;;;;-0.16;100.00;98752.87;104036;1257;61096;-55
2023/12/25 04:39:05;;;;;;;4.70;3.70;;;;;;;-0.13;100.00;98752.29;104240;1257;71871;-55
2023/12/25 04:41:32;;;;;;;5.10;3.60;;;;;;;-0.11;100.00;98754.89;104430;1259;65674;-54
2023/12/25 04:44:00;;;;;;;5.60;3.80;;;;;;;-0.07;100.00;98765.02;108626;1257;71472;-55
2023/12/25 04:46:27;;;;;;;5.50;3.90;;;;;;;-0.02;100.00;98755.06;108635;1260;58174;-55
2023/12/25 04:48:55;;;;;;;7.60;4.50;;;;;;;0.02;100.00;98755.84;108729;1257;58759;-55
2023/12/25 04:51:22;;;;;;;4.00;2.50;;;;;;;0.07;100.00;98755.58;108620;1259;71989;-56
2023/12/25 04:53:50;;;;;;;5.60;3.40;;;;;;;0.11;100.00;98740.47;108592;1257;68041;-56
2023/12/25 04:56:17;;;;;;;2.60;2.40;;;;;;;0.15;100.00;98740.91;108523;1258;73014;-55
2023/12/25 04:58:45;;;;;;;3.70;2.30;;;;;;;0.20;100.00;98728.98;108594;1260;60987;-55
2023/12/25 05:01:12;;;;;;;2.40;1.90;;;;;;;0.26;100.00;98716.49;108631;1258;58994;-56
2023/12/25 05:03:40;;;;;;;3.60;2.20;;;;;;;0.31;100.00;98711.98;106492;1257;71840;-52
2023/12/25 05:06:09;;;;;;;5.60;2.20;;;;;;;0.36;100.00;98709.72;108524;1259;65652;-56
2023/12/25 05:08:36;;;;;;;4.70;2.20;;;;;;;0.42;100.00;98703.05;108626;1260;72656;-56
2023/12/25 05:11:04;;;;;;;2.60;1.60;;;;;;;0.46;100.00;98701.88;108540;1258;61955;-56
2023/12/25 05:13:31;;;;;;;2.80;1.70;;;;;;;0.50;100.00;98700.20;108528;1257;60498;-54
2023/12/25 05:15:58;;;;;;;3.90;1.80;;;;;;;0.54;100.00;98694.62;104223;1264;73513;-55
2023/12/25 05:18:26;;;;;;;3.10;1.60;;;;;;;0.60;100.00;98707.02;104594;1257;69231;-55
2023/12/25 05:20:53;;;;;;;2.40;2.10;;;;;;;0.64;100.00;98711.15;107714;1261;73322;-54
2023/12/25 05:23:21;;;;;;;2.10;1.60;;;;;;;0.68;100.00;98700.98;104190;1263;60810;-53
2023/12/25 05:25:48;;;;;;;2.50;2.10;;;;;;;0.71;100.00;98702.84;104358;1260;59727;-55
2023/12/25 05:28:15;;;;;;;3.10;1.70;;;;;;;0.74;100.00;98690.23;104473;1259;71859;-53
2023/12/25 05:30:42;;;;;;;1.40;1.10;;;;;;;0.77;100.00;98690.16;104565;1257;66303;-55
2023/12/25 05:33:10;;;;;;;2.30;1.30;;;;;;;0.81;100.00;98689.36;105971;1261;71596;-55
2023/12/25 05:35:37;;;;;;;2.60;1.30;;;;;;;0.84;100.00;98686.98;104388;1261;59608;-54
2023/12/25 05:38:05;;;;;;;4.50;1.10;;;;;;;0.87;100.00;98681.05;104472;1257;60075;-54
2023/12/25 05:40:32;;;;;;;2.50;0.80;;;;;;;0.91;100.00;98677.42;104559;1260;72228;-53
2023/12/25 05:43:00;;;;;;;5.00;1.00;;;;;;;0.94;100.00;98676.62;104510;1264;67032;-54
2023/12/25 05:45:27;;;;;;;1.80;1.10;;;;;;;0.98;100.00;98673.17;104604;1258;72410;-55
2023/12/25 05:47:54;;;;;;;1.40;1.30;;;;;;;1.00;100.00;98673.66;104555;1257;59639;-54
2023/12/25 05:50:22;;;;;;;2.90;1.10;;;;;;;1.02;100.00;98677.65;104543;1258;60151;-53
2023/12/25 05:52:50;;;;;;;1.20;0.80;;;;;;;1.04;100.00;98671.77;104107;1257;71566;-55
2023/12/25 05:55:17;;;;;;;1.20;0.80;;;;;;;1.05;100.00;98667.66;104260;1260;66006;-52
2023/12/25 05:57:44;;;;;;;1.40;0.90;;;;;;;1.07;100.00;98665.50;104399;1262;73236;-54
2023/12/25 06:00:12;;;;;;;1.40;0.80;;;;;;;1.10;100.00;98661.55;104159;1257;60150;-55
2023/12/25 06:02:39;;;;;;;2.00;0.90;;;;;;;1.12;100.00;98661.81;104433;1262;59816;-53
2023/12/25 06:05:07;;;;;;;1.10;0.70;;;;;;;1.14;100.00;98664.41;104202;1263;71367;-55
2023/12/25 06:07:34;;;;;;;1.70;0.80;;;;;;;1.17;100.00;98659.58;104830;1259;65696;-54
2023/12/25 06:10:03;;;;;;;1.00;0.70;;;;;;;1.19;100.00;98659.70;104457;1260;71443;-54
2023/12/25 06:12:31;;;;;;;0.80;0.70;;;;;;;1.22;100.00;98661.38;104226;1257;60863;-50
2023/12/25 06:14:58;;;;;;;1.60;0.90;;;;;;;1.23;100.00;98658.15;104388;1263;60703;-54
2023/12/25 06:17:25;;;;;;;0.90;0.60;;;;;;;1.26;100.00;98648.73;104591;1257;74391;-52
2023/12/25 06:19:53;;;;;;;2.60;0.70;;;;;;;1.28;100.00;98644.95;104416;1257;66716;-54
2023/12/25 06:22:20;;;;;;;1.00;0.80;;;;;;;1.33;100.00;98649.23;104356;1258;71466;-54
2023/12/25 06:24:47;;;;;;;2.20;0.90;;;;;;;1.35;100.00;98648.11;104366;1260;61821;-54
2023/12/25 06:27:14;;;;;;;1.10;0.70;;;;;;;1.38;100.00;98642.89;104464;1263;60348;-55
2023/12/25 06:29:42;;;;;;;2.20;1.10;;;;;;;1.40;100.00;98641.05;104287;1263;73900;-54
2023/12/25 06:32:09;;;;;;;4.40;1.30;;;;;;;1.43;100.00;98636.21;104403;1258;67547;-53
2023/12/25 06:34:36;;;;;;;1.10;0.70;;;;;;;1.46;100.00;98630.98;104424;1261;72754;-53
2023/12/25 06:37:04;;;;;;;1.90;0.70;;;;;;;1.48;100.00;98633.40;104537;1258;60427;-52
2023/12/25 06:39:31;;;;;;;2.00;0.80;;;;;;;1.52;100.00;98655.73;104426;1258;60606;-52
2023/12/25 06:41:58;;;;;;;1.10;0.90;;;;;;;1.57;100.00;98649.05;104406;1257;72978;-55
2023/12/25 06:44:26;;;;;;;1.40;0.70;;;;;;;1.62;100.00;98650.14;104466;1262;66445;-53
2023/12/25 06:46:53;;;;;;;1.10;0.70;;;;;;;1.66;100.00;98657.10;104278;1262;72659;-53
2023/12/25 06:49:21;;;;;;;1.30;0.70;;;;;;;1.68;100.00;98667.98;104371;1259;60733;-53
2023/12/25 06:51:48;;;;;;;1.00;0.90;;;;;;;1.72;100.00;98657.23;104506;1257;60549;-51
2023/12/25 06:54:16;;;;;;;2.80;0.80;;;;;;;1.77;100.00;98665.79;104238;1258;72643;-53
2023/12/25 06:56:44;;;;;;;1.20;0.60;;;;;;;1.82;100.00;98669.86;104448;1257;66899;-53
2023/12/25 06:59:11;;;;;;;1.50;0.70;;;;;;;1.87;100.00;98667.23;104962;1259;71899;-53
2023/12/25 07:01:38;;;;;;;1.00;0.60;;;;;;;1.93;100.00;98669.73;104475;1263;61439;-51
2023/12/25 07:04:08;;;;;;;1.40;0.80;;;;;;;2.01;100.00;98662.74;104360;1258;60444;-53
2023/12/25 07:06:35;;;;;;;0.70;0.60;;;;;;;2.07;100.00;98675.27;105825;1264;77047;-54
2023/12/25 07:09:03;;;;;;;0.80;0.70;;;;;;;2.12;100.00;98686.43;105174;1259;66439;-53
2023/12/25 07:11:31;;;;;;;1.00;0.60;;;;;;;2.16;100.00;98685.25;104690;1257;71455;-55
2023/12/25 07:13:59;;;;;;;3.00;0.80;;;;;;;2.18;100.00;98679.73;104433;1259;60883;-55
2023/12/25 07:16:26;;;;;;;3.50;0.70;;;;;;;2.20;100.00;98683.00;104213;1257;61037;-54
2023/12/25 07:18:54;;;;;;;0.90;0.60;;;;;;;2.22;100.00;98689.13;104389;1262;73942;-52
2023/12/25 07:21:22;;;;;;;0.60;0.50;;;;;;;2.24;100.00;98688.17;104839;1259;67236;-53
2023/12/25 07:23:49;;;;;;;1.20;0.70;;;;;;;2.28;100.00;98682.58;104206;1263;71858;-54
2023/12/25 07:26:17;;;;;;;1.50;0.70;;;;;;;2.33;100.00;98695.16;104219;1261;60588;-55
2023/12/25 07:28:45;;;;;;;0.70;0.60;;;;;;;2.37;100.00;98687.59;104492;1258;60453;-53
2023/12/25 07:31:14;;;;;;;0.90;0.60;;;;;;;2.42;100.00;98693.98;108680;1259;71662;-54
2023/12/25 07:33:41;;;;;;;0.90;0.70;;;;;;;2.48;100.00;98704.95;108707;1258;66056;-55
2023/12/25 07:36:09;;;;;;;1.30;0.60;;;;;;;2.52;100.00;98713.13;108456;1259;72639;-54
2023/12/25 07:38:37;;;;;;;0.80;0.60;;;;;;;2.56;100.00;98711.95;104307;1259;60614;-54
2023/12/25 07:41:11;;;;;;;0.90;0.60;;;;;;;2.58;100.00;98718.60;104220;1257;60372;-54
2023/12/25 07:43:38;;;;;;;0.90;0.70;;;;;;;2.61;100.00;98718.36;108641;1257;71694;-54
2023/12/25 07:46:06;;;;;;;0.80;0.60;;;;;;;2.62;100.00;98712.65;108639;1257;65761;-55
2023/12/25 07:48:36;;;;;;;1.00;0.70;;;;;;;2.66;100.00;98709.86;108788;1257;72701;-56
2023/12/25 07:51:04;;;;;;;1.00;0.80;;;;;;;2.71;100.00;98722.63;108568;1259;61723;-54
2023/12/25 07:53:32;;;;;;;0.70;0.50;;;;;;;2.77;100.00;98731.09;108616;1257;59104;-55
2023/12/25 07:55:59;;;;;;;1.20;0.60;;;;;;;2.82;100.00;98730.04;108623;1259;72369;-55
2023/12/25 07:58:26;;;;;;;0.60;0.60;;;;;;;2.87;100.00;98733.96;108733;1257;67762;-54
2023/12/25 08:00:54;;;;;;;0.80;0.60;;;;;;;2.90;100.00;98734.89;108579;1259;72959;-54
2023/12/25 08:03:21;;;;;;;0.50;0.50;;;;;;;2.93;100.00;98740.48;108627;1257;59576;-54
2023/12/25 08:05:49;;;;;;;1.20;0.50;;;;;;;2.96;100.00;98740.73;108589;1258;58834;-54
2023/12/25 08:08:17;;;;;;;0.70;0.50;;;;;;;3.00;100.00;98737.02;108681;1257;72775;-53
2023/12/25 08:10:44;;;;;;;0.50;0.40;;;;;;;3.06;100.00;98740.38;107417;1257;67143;-55
2023/12/25 08:13:15;;;;;;;0.50;0.40;;;;;;;3.14;100.00;98737.47;104207;1259;71456;-52
2023/12/25 08:15:43;;;;;;;0.80;0.40;;;;;;;3.21;100.00;98742.70;104341;1259;60819;-53
2023/12/25 08:18:10;;;;;;;0.80;0.50;;;;;;;3.28;100.00;98737.31;104361;1263;60529;-54
2023/12/25 08:20:38;;;;;;;1.30;0.70;;;;;;;3.34;100.00;98748.44;108641;1257;73970;-55
2023/12/25 08:23:05;;;;;;;1.00;0.80;;;;;;;3.41;100.00;98758.30;106126;1257;66986;-54
2023/12/25 08:25:32;;;;;;;0.80;0.50;;;;;;;3.46;100.00;98762.22;104526;1262;70763;-55
2023/12/25 08:28:00;;;;;;;0.60;0.50;;;;;;;3.49;100.00;98757.16;104447;1261;60916;-54
2023/12/25 08:30:27;;;;;;;0.60;0.40;;;;;;;3.53;100.00;98762.15;104363;1259;60618;-55
2023/12/25 08:32:54;;;;;;;1.00;0.50;;;;;;;3.58;100.00;98769.77;104488;1257;73145;-55
2023/12/25 08:35:22;;;;;;;0.60;0.40;;;;;;;3.63;100.00;98776.35;105170;1262;65812;-54
2023/12/25 08:37:49;;;;;;;1.80;0.50;;;;;;;3.66;100.00;98775.50;104740;1259;72727;-56
2023/12/25 08:40:18;;;;;;;0.70;0.30;;;;;;;3.72;100.00;98776.36;104498;1260;60623;-55
2023/12/25 08:42:45;;;;;;;2.60;0.50;;;;;;;3.79;100.00;98776.63;108536;1258;59784;-55
2023/12/25 08:45:13;;;;;;;0.70;0.40;;;;;;;3.86;100.00;98788.45;105447;1265;73912;-56
2023/12/25 08:47:40;;;;;;;0.50;0.50;;;;;;;3.92;100.00;98791.41;104698;1262;67799;-55
2023/12/25 08:50:08;;;;;;;1.40;0.40;;;;;;;3.98;100.00;98792.60;104905;1258;71428;-56
2023/12/25 08:52:36;;;;;;;0.80;0.50;;;;;;;4.03;100.00;98801.29;105031;1262;60556;-56
2023/12/25 08:55:04;;;;;;;0.70;0.40;;;;;;;4.08;100.00;98806.61;104207;1262;60351;-56
2023/12/25 08:57:35;;;;;;;0.70;0.40;;;;;;;4.12;100.00;98813.21;105973;1259;73910;-56
2023/12/25 09:00:10;;;;;;;0.70;0.40;;;;;;;4.16;100.00;98815.02;104551;1263;66852;-57
2023/12/25 09:02:38;;;;;;;0.60;0.40;;;;;;;4.21;100.00;98822.30;106552;1259;73141;-57
2023/12/25 09:05:06;;;;;;;0.90;0.40;;;;;;;4.27;100.00;98828.28;104566;1261;60473;-57
2023/12/25 09:07:34;;;;;;;0.50;0.40;;;;;;;4.33;100.00;98842.45;107581;1258;60095;-54
2023/12/25 09:10:02;;;;;;;0.50;0.40;;;;;;;4.39;100.00;98842.05;105992;1262;73892;-57
2023/12/25 09:12:29;;;;;;;0.40;0.40;;;;;;;4.43;100.00;98848.96;104461;1258;65906;-58
2023/12/25 09:14:56;;;;;;;0.50;0.40;;;;;;;4.48;100.00;98845.23;104351;1257;71589;-57
2023/12/25 09:17:24;;;;;;;0.40;0.40;;;;;;;4.53;100.00;98848.77;104363;1257;62251;-57
2023/12/25 09:19:52;;;;;;;0.60;0.50;;;;;;;4.55;100.00;98855.98;104984;1258;61407;-56
2023/12/25 09:22:23;;;;;;;0.40;0.30;;;;;;;4.60;100.00;98859.02;104512;1258;72629;-58
2023/12/25 09:24:51;;;;;;;0.30;0.30;;;;;;;4.63;100.00;98868.67;104621;1259;66338;-58
2023/12/25 09:27:18;;;;;;;0.50;0.40;;;;;;;4.65;100.00;98867.71;105114;1259;72661;-59
2023/12/25 09:29:45;;;;;;;0.50;0.30;;;;;;;4.68;100.00;98878.07;104629;1262;60946;-59
2023/12/25 09:32:13;;;;;;;0.50;0.40;;;;;;;4.70;100.00;98874.77;104271;1260;60505;-57
2023/12/25 09:34:40;;;;;;;1.20;0.30;;;;;;;4.77;100.00;98878.44;104553;1257;72674;-59
2023/12/25 09:37:28;;;;;;;0.30;0.30;;;;;;;4.85;100.00;98892.88;108614;1257;67202;-58
2023/12/25 09:39:55;;;;;;;1.10;0.40;;;;;;;4.92;100.00;98899.70;104665;1260;74771;-59
2023/12/25 09:42:22;;;;;;;0.50;0.40;;;;;;;4.99;100.00;98901.38;104381;1259;61884;-58
2023/12/25 09:44:50;;;;;;;0.50;0.40;;;;;;;5.05;100.00;98902.55;104281;1264;60964;-58
2023/12/25 09:47:18;;;;;;;0.40;0.30;;;;;;;5.10;100.00;98913.91;104356;1260;74231;-59
2023/12/25 09:49:45;;;;;;;0.60;0.40;;;;;;;5.15;100.00;98921.20;104620;1260;67500;-57
2023/12/25 09:52:13;;;;;;;0.50;0.30;;;;;;;5.20;100.00;98924.70;104472;1263;72381;-58
2023/12/25 09:54:41;;;;;;;0.50;0.40;;;;;;;5.27;100.00;98937.77;104596;1258;61759;-61
2023/12/25 09:57:10;;;;;;;0.40;0.30;;;;;;;5.33;100.00;98947.34;105335;1258;60485;-58
2023/12/25 09:59:37;;;;;;;0.50;0.40;;;;;;;5.37;100.00;98965.16;104953;1259;73939;-58
2023/12/25 10:02:05;;;;;;;0.60;0.40;;;;;;;5.38;100.00;98969.21;104437;1265;65836;-58
2023/12/25 10:04:34;;;;;;;0.50;0.40;;;;;;;5.37;100.00;98972.27;106956;1261;71445;-58
2023/12/25 10:07:05;;;;;;;0.80;0.40;;;;;;;5.37;100.00;98985.77;104470;1257;60537;-57
2023/12/25 10:09:33;;;;;;;0.30;0.30;;;;;;;5.38;100.00;98990.20;104431;1257;60554;-58
2023/12/25 10:12:01;;;;;;;0.50;0.30;;;;;;;5.39;100.00;98991.92;104912;1257;74415;-58
2023/12/25 10:14:29;;;;;;;0.40;0.30;;;;;;;5.40;100.00;98994.73;106411;1258;67448;-59
2023/12/25 10:16:58;;;;;;;0.60;0.40;;;;;;;5.45;100.00;99000.95;104964;1257;73178;-57
2023/12/25 10:19:26;;;;;;;0.30;0.30;;;;;;;5.50;100.00;98996.83;105287;1260;62465;-58
2023/12/25 10:21:53;;;;;;;0.40;0.30;;;;;;;5.57;100.00;99005.09;108619;1257;59178;-59
2023/12/25 10:24:26;;;;;;;0.40;0.30;;;;;;;5.64;100.00;99019.75;108787;1257;71667;-59
2023/12/25 10:26:57;;;;;;;0.40;0.30;;;;;;;5.68;100.00;99027.61;108546;1257;65776;-59
2023/12/25 10:29:35;;;;;;;0.30;0.30;;;;;;;5.69;100.00;99028.44;108716;1258;71475;-59
2023/12/25 10:32:15;;;;;;;0.60;0.40;;;;;;;5.71;100.00;99034.79;108473;1257;61908;-58
2023/12/25 10:34:43;;;;;;;0.30;0.30;;;;;;;5.73;100.00;99045.38;108657;1257;59394;-59
2023/12/25 10:37:12;;;;;;;0.50;0.40;;;;;;;5.74;100.00;99041.61;108549;1258;72665;-60
2023/12/25 10:39:39;;;;;;;0.20;0.20;;;;;;;5.76;100.00;99057.39;108907;1255;67471;-59
2023/12/25 10:42:07;;;;;;;0.40;0.20;;;;;;;5.77;100.00;99057.33;108946;1256;72827;-59
2023/12/25 10:44:36;;;;;;;0.30;0.20;;;;;;;5.81;100.00;99061.98;108741;1253;61476;-59
2023/12/25 10:47:05;;;;;;;0.50;0.20;;;;;;;5.83;100.00;99062.23;108695;1253;62400;-59
2023/12/25 10:49:33;;;;;;;0.30;0.20;;;;;;;5.89;100.00;99058.10;109062;1256;72388;-58
2023/12/25 10:52:00;;;;;;;0.30;0.30;;;;;;;5.93;100.00;99065.98;108887;1253;66130;-59
2023/12/25 10:54:27;;;;;;;0.40;0.30;;;;;;;5.96;100.00;99073.34;108715;1253;72755;-59
2023/12/25 10:56:55;;;;;;;0.30;0.20;;;;;;;5.99;100.00;99082.65;108663;1253;62829;-59
2023/12/25 10:59:27;;;;;;;0.40;0.20;;;;;;;6.00;100.00;99085.98;108890;1253;61025;-61
2023/12/25 11:01:55;;;;;;;0.30;0.30;;;;;;;6.02;100.00;99092.16;108734;1254;76083;-58
2023/12/25 11:04:23;;;;;;;0.20;0.20;;;;;;;6.02;100.00;99084.84;108863;1253;65820;-59
2023/12/25 11:06:50;;;;;;;0.60;0.20;;;;;;;6.05;100.00;99095.02;105717;1256;71405;-59
2023/12/25 11:09:19;;;;;;;0.20;0.20;;;;;;;6.08;100.00;99100.09;108757;1253;60123;-57
2023/12/25 11:11:47;;;;;;;0.30;0.20;;;;;;;6.11;100.00;99105.86;108898;1254;60477;-59
2023/12/25 11:14:15;;;;;;;1.10;0.20;;;;;;;6.14;100.00;99110.52;108938;1256;76620;-59
2023/12/25 11:16:42;;;;;;;0.60;0.40;;;;;;;6.17;100.00;99120.93;108862;1253;67042;-58
2023/12/25 11:19:10;;;;;;;0.20;0.20;;;;;;;6.20;100.00;99123.69;108738;1253;71463;-57
2023/12/25 11:21:37;;;;;;;0.50;0.30;;;;;;;6.22;100.00;99127.30;108817;1254;61189;-58
2023/12/25 11:24:05;;;;;;;0.30;0.20;;;;;;;6.24;100.00;99140.23;108746;1253;60077;-59
2023/12/25 11:26:32;;;;;;;0.30;0.20;;;;;;;6.28;100.00;99149.86;108608;1253;72626;-58